Time;durP1;ratioP1;P1;durP2;ratioP2;P2;SDS_P1;SDS_P2;PMS_P1;PMS_P2;Temp;Humidity;BMP_temperature;BMP_pressure;BME280_temperature;BME280_humidity;BME280_pressure;Samples;Min_cycle;Max_cycle;Signal;HPM_P1;HPM_P2
2023/12/22 00:01:53;;;;;;;5.90;1.80;;;;;;;;;;5060091;28;20051;-55
2023/12/22 00:04:38;;;;;;;;;;;;;;;;;;5069855;28;20056;-57
2023/12/22 00:07:50;;;;;;;3.05;1.48;;;;;;;;;;5061012;28;19947;-56
2023/12/22 00:10:16;;;;;;;2.33;1.30;;;;;;;;;;5075065;28;20052;-56
2023/12/22 00:12:42;;;;;;;2.88;1.33;;;;;;;;;;5063359;28;20041;-55
2023/12/22 00:15:08;;;;;;;6.88;1.60;;;;;;;;;;5063997;28;20044;-56
2023/12/22 00:17:34;;;;;;;3.08;1.00;;;;;;;;;;5060732;28;20054;-61
2023/12/22 00:20:02;;;;;;;2.55;1.30;;;;;;;;;;5061135;28;20066;-56
2023/12/22 00:22:30;;;;;;;2.35;1.25;;;;;;;;;;5060858;28;20048;-55
2023/12/22 00:24:56;;;;;;;2.42;1.35;;;;;;;;;;5062845;28;20131;-56
2023/12/22 00:27:22;;;;;;;2.30;1.38;;;;;;;;;;5067833;28;20455;-54
2023/12/22 00:29:49;;;;;;;3.60;1.52;;;;;;;;;;5056197;28;20074;-55
2023/12/22 00:32:16;;;;;;;2.55;1.50;;;;;;;;;;5060835;28;20489;-56
2023/12/22 00:34:43;;;;;;;4.00;1.25;;;;;;;;;;5068028;28;20598;-55
2023/12/22 00:37:08;;;;;;;3.60;1.90;;;;;;;;;;5059230;28;20156;-58
2023/12/22 00:39:34;;;;;;;4.90;1.75;;;;;;;;;;5066705;28;20055;-57
2023/12/22 00:42:01;;;;;;;3.75;1.30;;;;;;;;;;5064036;28;20045;-58
2023/12/22 00:44:29;;;;;;;2.58;1.38;;;;;;;;;;5066077;28;20052;-59
2023/12/22 00:46:55;;;;;;;2.20;1.10;;;;;;;;;;5064259;28;20067;-56
2023/12/22 00:49:21;;;;;;;3.53;1.45;;;;;;;;;;5057158;28;20060;-58
2023/12/22 00:51:47;;;;;;;2.53;1.33;;;;;;;;;;5060654;28;20051;-57
2023/12/22 00:54:52;;;;;;;2.95;1.30;;;;;;;;;;5064354;28;20079;-55
2023/12/22 00:57:18;;;;;;;1.75;0.95;;;;;;;;;;5065240;28;20057;-57
2023/12/22 00:59:47;;;;;;;2.25;1.15;;;;;;;;;;5060800;28;20071;-57
2023/12/22 01:02:16;;;;;;;3.58;1.45;;;;;;;;;;5066855;28;20045;-55
2023/12/22 01:04:42;;;;;;;2.58;1.17;;;;;;;;;;5063416;28;20055;-57
2023/12/22 01:07:09;;;;;;;2.80;1.13;;;;;;;;;;5060227;28;20495;-57
2023/12/22 01:09:37;;;;;;;2.42;1.02;;;;;;;;;;5059498;28;20595;-57
2023/12/22 01:12:06;;;;;;;2.25;1.45;;;;;;;;;;5066569;28;20094;-59
2023/12/22 01:14:33;;;;;;;4.80;1.00;;;;;;;;;;5062122;28;20123;-55
2023/12/22 01:17:00;;;;;;;2.60;1.25;;;;;;;;;;5063263;28;20139;-54
2023/12/22 01:19:51;;;;;;;1.25;0.88;;;;;;;;;;5056170;28;20814;-58
2023/12/22 01:22:18;;;;;;;2.63;0.85;;;;;;;;;;5062005;28;20048;-54
2023/12/22 01:24:46;;;;;;;3.10;1.00;;;;;;;;;;5064133;28;20524;-57
2023/12/22 01:27:13;;;;;;;2.53;1.35;;;;;;;;;;5060130;28;20052;-57
2023/12/22 01:29:39;;;;;;;1.65;0.88;;;;;;;;;;5062673;28;20044;-56
2023/12/22 01:32:05;;;;;;;1.40;0.85;;;;;;;;;;5059863;28;20143;-57
2023/12/22 01:34:50;;;;;;;1.42;0.85;;;;;;;;;;5061950;28;20527;-56
2023/12/22 01:37:16;;;;;;;3.38;0.98;;;;;;;;;;5056530;28;20256;-60
2023/12/22 01:39:42;;;;;;;5.43;1.05;;;;;;;;;;5065007;28;20526;-55
2023/12/22 01:42:48;;;;;;;1.67;0.88;;;;;;;;;;5058829;28;20651;-58
2023/12/22 01:45:16;;;;;;;1.67;0.80;;;;;;;;;;5057167;28;20051;-56
2023/12/22 01:47:42;;;;;;;5.53;1.02;;;;;;;;;;5058830;28;20056;-57
2023/12/22 01:50:10;;;;;;;1.27;0.70;;;;;;;;;;5062764;28;20542;-56
2023/12/22 01:52:41;;;;;;;1.85;0.70;;;;;;;;;;5060244;28;20147;-54
2023/12/22 01:55:48;;;;;;;0.95;0.60;;;;;;;;;;5062434;28;20053;-57
2023/12/22 01:58:53;;;;;;;2.45;0.70;;;;;;;;;;5059136;28;20048;-58
2023/12/22 02:01:20;;;;;;;0.60;0.60;;;;;;;;;;5058533;28;20127;-52
2023/12/22 02:03:52;;;;;;;1.38;0.68;;;;;;;;;;5063144;28;20049;-52
2023/12/22 02:06:54;;;;;;;1.20;0.70;;;;;;;;;;5062394;28;20356;-58
2023/12/22 02:09:20;;;;;;;2.05;0.80;;;;;;;;;;5061038;28;20456;-55
2023/12/22 02:11:50;;;;;;;3.47;0.95;;;;;;;;;;5096071;28;20049;-56
2023/12/22 02:14:53;;;;;;;1.33;0.85;;;;;;;;;;5075494;28;20107;-55
2023/12/22 02:17:32;;;;;;;1.55;0.90;;;;;;;;;;5061934;28;20122;-56
2023/12/22 02:19:59;;;;;;;4.88;1.00;;;;;;;;;;5065265;28;20102;-55
2023/12/22 02:22:29;;;;;;;1.75;0.80;;;;;;;;;;5068690;28;20054;-55
2023/12/22 02:24:56;;;;;;;2.00;0.85;;;;;;;;;;5063247;28;20056;-53
2023/12/22 02:27:28;;;;;;;1.70;0.90;;;;;;;;;;5062052;28;20060;-53
2023/12/22 02:30:02;;;;;;;1.05;0.70;;;;;;;;;;5061651;28;20122;-56
2023/12/22 02:32:50;;;;;;;0.88;0.63;;;;;;;;;;5054390;28;20052;-52
2023/12/22 02:35:25;;;;;;;1.05;0.85;;;;;;;;;;5064217;28;20089;-56
2023/12/22 02:37:54;;;;;;;2.22;0.90;;;;;;;;;;5060726;28;20052;-56
2023/12/22 02:40:57;;;;;;;1.10;0.60;;;;;;;;;;5064831;28;20503;-57
2023/12/22 02:43:23;;;;;;;2.88;0.80;;;;;;;;;;5064646;28;20048;-54
2023/12/22 02:45:51;;;;;;;1.73;0.90;;;;;;;;;;5059000;28;20029;-57
2023/12/22 02:48:18;;;;;;;2.78;0.75;;;;;;;;;;5060986;28;20538;-57
2023/12/22 02:50:52;;;;;;;1.67;0.90;;;;;;;;;;5061824;28;20052;-55
2023/12/22 02:53:55;;;;;;;1.02;0.70;;;;;;;;;;5075869;28;20564;-55
2023/12/22 02:56:21;;;;;;;2.28;0.95;;;;;;;;;;5063538;28;20052;-54
2023/12/22 02:58:52;;;;;;;1.27;0.70;;;;;;;;;;5062815;28;20055;-55
2023/12/22 03:01:56;;;;;;;1.73;0.88;;;;;;;;;;5061436;28;20052;-52
2023/12/22 03:04:51;;;;;;;1.88;0.60;;;;;;;;;;5063793;28;20052;-57
2023/12/22 03:07:53;;;;;;;1.40;0.70;;;;;;;;;;5061362;28;20409;-54
2023/12/22 03:10:57;;;;;;;3.00;0.90;;;;;;;;;;5059302;28;20350;-54
2023/12/22 03:13:22;;;;;;;2.00;0.80;;;;;;;;;;5093836;27;20476;-56
2023/12/22 03:15:51;;;;;;;3.50;0.88;;;;;;;;;;5062407;28;20051;-59
2023/12/22 03:18:55;;;;;;;2.13;0.90;;;;;;;;;;5060317;28;20058;-56
2023/12/22 03:21:50;;;;;;;1.33;0.98;;;;;;;;;;5062226;28;20057;-57
2023/12/22 03:24:44;;;;;;;1.33;0.80;;;;;;;;;;5062827;28;20061;-54
2023/12/22 03:27:11;;;;;;;2.10;1.02;;;;;;;;;;5064254;28;20057;-57
2023/12/22 03:29:38;;;;;;;1.75;0.93;;;;;;;;;;5055690;28;20775;-58
2023/12/22 03:32:04;;;;;;;1.42;1.00;;;;;;;;;;5062489;28;20049;-56
2023/12/22 03:34:49;;;;;;;2.03;0.95;;;;;;;;;;5061429;28;20463;-54
2023/12/22 03:37:52;;;;;;;1.77;1.00;;;;;;;;;;5056355;28;20053;-55
2023/12/22 03:40:54;;;;;;;0.93;0.75;;;;;;;;;;5060181;28;20126;-60
2023/12/22 03:43:57;;;;;;;1.83;0.80;;;;;;;;;;5090660;27;20424;-54
2023/12/22 03:46:23;;;;;;;1.20;0.90;;;;;;;;;;5056916;28;20055;-56
2023/12/22 03:48:52;;;;;;;1.58;0.90;;;;;;;;;;5060281;28;20045;-57
2023/12/22 03:51:18;;;;;;;1.45;0.80;;;;;;;;;;5064444;28;20056;-53
2023/12/22 03:53:53;;;;;;;2.13;1.00;;;;;;;;;;5057697;28;20059;-54
2023/12/22 03:56:50;;;;;;;1.42;0.98;;;;;;;;;;5061055;28;20087;-59
2023/12/22 03:59:18;;;;;;;2.10;1.23;;;;;;;;;;5056853;28;20052;-57
2023/12/22 04:01:44;;;;;;;2.00;0.90;;;;;;;;;;5062950;28;20057;-58
2023/12/22 04:04:10;;;;;;;2.83;0.93;;;;;;;;;;5065814;28;20055;-54
2023/12/22 04:06:56;;;;;;;1.58;0.88;;;;;;;;;;5064973;28;20052;-57
2023/12/22 04:09:23;;;;;;;1.73;0.90;;;;;;;;;;5062463;28;20091;-54
2023/12/22 04:11:48;;;;;;;3.70;1.10;;;;;;;;;;5060440;28;20572;-54
2023/12/22 04:14:15;;;;;;;3.92;1.08;;;;;;;;;;5061523;28;20056;-57
2023/12/22 04:16:40;;;;;;;3.30;1.15;;;;;;;;;;5060554;28;20507;-54
2023/12/22 04:19:07;;;;;;;3.72;0.90;;;;;;;;;;5064229;28;20231;-60
2023/12/22 04:21:32;;;;;;;3.92;1.02;;;;;;;;;;5061150;28;20433;-61
2023/12/22 04:23:59;;;;;;;3.13;1.23;;;;;;;;;;5060767;28;20056;-58
2023/12/22 04:26:25;;;;;;;3.28;1.00;;;;;;;;;;5059971;28;20056;-57
2023/12/22 04:28:51;;;;;;;1.80;0.90;;;;;;;;;;5067564;28;20159;-56
2023/12/22 04:31:17;;;;;;;1.90;0.90;;;;;;;;;;5062785;28;20140;-56
2023/12/22 04:33:43;;;;;;;2.97;1.20;;;;;;;;;;5060324;28;20079;-58
2023/12/22 04:36:09;;;;;;;2.40;1.10;;;;;;;;;;5060859;28;20086;-56
2023/12/22 04:38:35;;;;;;;1.52;1.02;;;;;;;;;;5059349;28;20130;-53
2023/12/22 04:41:01;;;;;;;6.45;1.10;;;;;;;;;;5063125;28;20069;-53
2023/12/22 04:43:51;;;;;;;6.40;1.02;;;;;;;;;;5061429;28;20056;-62
2023/12/22 04:46:17;;;;;;;2.47;1.10;;;;;;;;;;5056027;28;20115;-57
2023/12/22 04:48:52;;;;;;;3.40;1.23;;;;;;;;;;5062979;28;20050;-58
2023/12/22 04:51:17;;;;;;;;;;;;;;;;;;5072655;28;20052;-56
2023/12/22 04:53:46;;;;;;;1.48;0.75;;;;;;;;;;5060564;28;19978;-56
2023/12/22 04:56:12;;;;;;;1.77;0.75;;;;;;;;;;5061340;28;20052;-51
2023/12/22 04:58:38;;;;;;;1.58;1.25;;;;;;;;;;5053372;28;20145;-57
2023/12/22 05:01:04;;;;;;;1.42;1.02;;;;;;;;;;5061044;28;20487;-54
2023/12/22 05:03:32;;;;;;;2.78;1.00;;;;;;;;;;5063762;28;20061;-54
2023/12/22 05:05:58;;;;;;;2.55;0.88;;;;;;;;;;5097341;27;20052;-55
2023/12/22 05:08:52;;;;;;;3.28;0.90;;;;;;;;;;5061574;28;20117;-57
2023/12/22 05:11:18;;;;;;;3.08;1.00;;;;;;;;;;5063787;28;20060;-56
2023/12/22 05:13:44;;;;;;;1.27;0.90;;;;;;;;;;5059981;28;20548;-56
2023/12/22 05:16:10;;;;;;;1.30;0.75;;;;;;;;;;5061835;28;20052;-54
2023/12/22 05:18:36;;;;;;;6.65;1.20;;;;;;;;;;5059298;28;20151;-55
2023/12/22 05:21:02;;;;;;;2.03;1.13;;;;;;;;;;5058271;28;20457;-54
2023/12/22 05:23:29;;;;;;;2.25;1.20;;;;;;;;;;5063096;28;20455;-55
2023/12/22 05:25:54;;;;;;;1.40;1.15;;;;;;;;;;5059276;28;20049;-55
2023/12/22 05:28:21;;;;;;;1.92;1.25;;;;;;;;;;5058989;28;20278;-57
2023/12/22 05:30:47;;;;;;;2.40;1.30;;;;;;;;;;5053908;28;20051;-58
2023/12/22 05:33:13;;;;;;;1.50;1.17;;;;;;;;;;5065094;28;20051;-57
2023/12/22 05:35:39;;;;;;;4.60;1.52;;;;;;;;;;5060206;28;20048;-62
2023/12/22 05:38:06;;;;;;;2.88;1.45;;;;;;;;;;5058558;28;20227;-54
2023/12/22 05:40:32;;;;;;;2.65;1.40;;;;;;;;;;5056897;28;20179;-57
2023/12/22 05:42:58;;;;;;;2.15;1.42;;;;;;;;;;5063042;28;20048;-54
2023/12/22 05:45:24;;;;;;;4.97;1.42;;;;;;;;;;5059169;28;20405;-59
2023/12/22 05:47:52;;;;;;;4.35;1.20;;;;;;;;;;5060204;28;20055;-56
2023/12/22 05:50:18;;;;;;;4.20;1.27;;;;;;;;;;5065233;28;20049;-57
2023/12/22 05:52:44;;;;;;;6.65;1.63;;;;;;;;;;5062991;28;20059;-52
2023/12/22 05:55:10;;;;;;;2.58;1.55;;;;;;;;;;5060232;28;20140;-57
2023/12/22 05:57:36;;;;;;;2.13;1.30;;;;;;;;;;5061648;28;20083;-53
2023/12/22 06:00:07;;;;;;;3.95;1.48;;;;;;;;;;5063222;28;20075;-55
2023/12/22 06:02:34;;;;;;;4.20;1.55;;;;;;;;;;5063408;28;20076;-56
2023/12/22 06:05:01;;;;;;;3.03;1.40;;;;;;;;;;5063466;28;20080;-54
2023/12/22 06:07:50;;;;;;;3.13;1.20;;;;;;;;;;5061195;28;20540;-55
2023/12/22 06:10:16;;;;;;;4.47;1.50;;;;;;;;;;5095514;27;20109;-57
2023/12/22 06:12:42;;;;;;;3.30;1.40;;;;;;;;;;5065249;28;20068;-55
2023/12/22 06:15:08;;;;;;;2.85;1.13;;;;;;;;;;5063286;28;20053;-53
2023/12/22 06:17:34;;;;;;;5.57;1.35;;;;;;;;;;5063952;28;20045;-55
2023/12/22 06:20:00;;;;;;;3.25;1.27;;;;;;;;;;5060624;28;20052;-55
2023/12/22 06:22:27;;;;;;;2.88;1.50;;;;;;;;;;5057915;28;20087;-56
2023/12/22 06:24:52;;;;;;;3.72;1.30;;;;;;;;;;5062316;28;20077;-54
2023/12/22 06:27:19;;;;;;;3.45;1.33;;;;;;;;;;5062131;28;20064;-59
2023/12/22 06:29:55;;;;;;;4.25;1.30;;;;;;;;;;5064943;28;20131;-58
2023/12/22 06:32:23;;;;;;;9.90;2.17;;;;;;;;;;5065281;28;20105;-58
2023/12/22 06:34:50;;;;;;;5.22;1.85;;;;;;;;;;5064691;28;20075;-55
2023/12/22 06:37:55;;;;;;;5.18;1.73;;;;;;;;;;5078611;28;20508;-58
2023/12/22 06:40:58;;;;;;;5.72;1.80;;;;;;;;;;5068310;28;20044;-59
2023/12/22 06:43:24;;;;;;;7.40;1.38;;;;;;;;;;5068822;28;20082;-56
2023/12/22 06:45:54;;;;;;;3.97;1.73;;;;;;;;;;5068198;28;20048;-62
2023/12/22 06:48:20;;;;;;;10.27;1.70;;;;;;;;;;5062117;28;20040;-57
2023/12/22 06:50:50;;;;;;;6.50;1.80;;;;;;;;;;5067058;28;20044;-57
2023/12/22 06:53:17;;;;;;;3.60;2.00;;;;;;;;;;5056829;28;20036;-57
2023/12/22 06:55:44;;;;;;;6.40;1.80;;;;;;;;;;5058821;28;20061;-59
2023/12/22 06:58:10;;;;;;;6.05;1.98;;;;;;;;;;5056685;28;20752;-58
2023/12/22 07:00:56;;;;;;;4.38;1.77;;;;;;;;;;5058193;28;20048;-54
2023/12/22 07:04:02;;;;;;;8.70;2.10;;;;;;;;;;5053157;28;20167;-53
2023/12/22 07:07:03;;;;;;;3.47;2.15;;;;;;;;;;5052204;28;20140;-61
2023/12/22 07:09:50;;;;;;;10.68;2.10;;;;;;;;;;5059920;28;20045;-59
2023/12/22 07:12:52;;;;;;;7.75;2.47;;;;;;;;;;5060009;28;20060;-57
2023/12/22 07:15:19;;;;;;;11.77;2.50;;;;;;;;;;5056574;28;20064;-60
2023/12/22 07:17:54;;;;;;;7.25;2.05;;;;;;;;;;5072852;28;20535;-60
2023/12/22 07:20:59;;;;;;;6.93;2.08;;;;;;;;;;5072956;28;20496;-58
2023/12/22 07:23:53;;;;;;;7.57;2.17;;;;;;;;;;5048386;28;20053;-58
2023/12/22 07:26:58;;;;;;;4.40;2.20;;;;;;;;;;5061873;28;20069;-61
2023/12/22 07:29:53;;;;;;;10.02;1.92;;;;;;;;;;5062443;28;20084;-57
2023/12/22 07:32:19;;;;;;;9.57;2.23;;;;;;;;;;5065098;28;20063;-55
2023/12/22 07:35:57;;;;;;;15.15;2.30;;;;;;;;;;5056268;28;20664;-58
2023/12/22 07:38:52;;;;;;;13.70;2.75;;;;;;;;;;5061182;28;20052;-59
2023/12/22 07:41:18;;;;;;;9.47;2.20;;;;;;;;;;5091440;27;20053;-56
2023/12/22 07:43:52;;;;;;;13.00;2.53;;;;;;;;;;5060790;28;20076;-62
2023/12/22 07:46:18;;;;;;;;;;;;;;;;;;5058314;28;20053;-58
2023/12/22 07:48:45;;;;;;;10.07;3.03;;;;;;;;;;5055368;28;19931;-55
2023/12/22 07:51:11;;;;;;;5.70;2.47;;;;;;;;;;5062637;28;20049;-55
2023/12/22 07:53:57;;;;;;;7.97;2.45;;;;;;;;;;5062408;28;20044;-62
2023/12/22 07:56:23;;;;;;;12.27;2.63;;;;;;;;;;5065462;28;20056;-55
2023/12/22 07:58:49;;;;;;;8.48;2.55;;;;;;;;;;5060186;28;20215;-54
2023/12/22 08:01:15;;;;;;;10.30;2.40;;;;;;;;;;5058532;28;20143;-54
2023/12/22 08:03:41;;;;;;;7.72;2.40;;;;;;;;;;5058620;28;20068;-56
2023/12/22 08:06:07;;;;;;;8.10;2.10;;;;;;;;;;5060116;28;20072;-56
2023/12/22 08:08:34;;;;;;;8.82;2.22;;;;;;;;;;5060961;28;20321;-57
2023/12/22 08:11:00;;;;;;;11.57;2.10;;;;;;;;;;5063749;28;20127;-54
2023/12/22 08:13:27;;;;;;;5.75;2.05;;;;;;;;;;5061157;28;20310;-53
2023/12/22 08:15:53;;;;;;;11.60;2.70;;;;;;;;;;5065238;28;20463;-55
2023/12/22 08:18:22;;;;;;;15.52;2.83;;;;;;;;;;5063635;28;20211;-55
2023/12/22 08:20:49;;;;;;;17.35;3.80;;;;;;;;;;5057624;28;20041;-55
2023/12/22 08:23:15;;;;;;;13.13;3.50;;;;;;;;;;5057148;28;20176;-53
2023/12/22 08:25:42;;;;;;;12.00;3.40;;;;;;;;;;5064692;28;20059;-56
2023/12/22 08:28:08;;;;;;;15.93;2.85;;;;;;;;;;5053913;28;20063;-59
2023/12/22 08:30:35;;;;;;;13.32;2.92;;;;;;;;;;5051731;28;20083;-55
2023/12/22 08:33:02;;;;;;;15.15;3.55;;;;;;;;;;5055423;28;20041;-57
2023/12/22 08:35:28;;;;;;;15.82;3.47;;;;;;;;;;5078770;28;20072;-55
2023/12/22 08:37:54;;;;;;;15.43;3.42;;;;;;;;;;5053346;28;20049;-54
2023/12/22 08:40:25;;;;;;;17.50;3.67;;;;;;;;;;5057997;28;20105;-56
2023/12/22 08:42:59;;;;;;;18.58;3.53;;;;;;;;;;5057561;28;20048;-58
2023/12/22 08:45:28;;;;;;;12.82;3.55;;;;;;;;;;5054729;28;20463;-56
2023/12/22 08:47:56;;;;;;;9.13;3.20;;;;;;;;;;5055881;28;20052;-56
2023/12/22 08:50:21;;;;;;;8.35;2.78;;;;;;;;;;5054980;28;20126;-61
2023/12/22 08:52:48;;;;;;;11.05;3.17;;;;;;;;;;5052632;28;20049;-56
2023/12/22 08:55:13;;;;;;;20.02;8.02;;;;;;;;;;5056441;28;20516;-57
2023/12/22 08:57:40;;;;;;;7.38;2.92;;;;;;;;;;5063383;28;20063;-57
2023/12/22 09:00:06;;;;;;;15.60;3.72;;;;;;;;;;5056580;28;20049;-62
2023/12/22 09:02:32;;;;;;;7.03;2.80;;;;;;;;;;5058448;28;20416;-56
2023/12/22 09:04:59;;;;;;;8.32;2.55;;;;;;;;;;5075634;28;20510;-60
2023/12/22 09:07:25;;;;;;;9.15;2.55;;;;;;;;;;5063855;28;20044;-58
2023/12/22 09:09:51;;;;;;;12.57;3.17;;;;;;;;;;5058230;28;20032;-56
2023/12/22 09:12:17;;;;;;;10.27;2.78;;;;;;;;;;5091320;27;20048;-59
2023/12/22 09:14:42;;;;;;;8.32;2.40;;;;;;;;;;5061598;28;20105;-55
2023/12/22 09:17:10;;;;;;;8.20;2.60;;;;;;;;;;5060328;28;20052;-56
2023/12/22 09:19:38;;;;;;;13.68;3.22;;;;;;;;;;5059198;28;20504;-55
2023/12/22 09:22:04;;;;;;;18.50;2.83;;;;;;;;;;5054368;28;20152;-59
2023/12/22 09:24:30;;;;;;;6.10;2.20;;;;;;;;;;5051920;28;20599;-56
2023/12/22 09:27:02;;;;;;;12.30;2.72;;;;;;;;;;5063169;28;20057;-58
2023/12/22 09:29:29;;;;;;;4.18;2.13;;;;;;;;;;5053940;28;20460;-57
2023/12/22 09:31:56;;;;;;;10.82;2.53;;;;;;;;;;5065662;28;20395;-52
2023/12/22 09:34:22;;;;;;;7.22;2.58;;;;;;;;;;5065076;28;20075;-53
2023/12/22 09:36:49;;;;;;;10.60;3.30;;;;;;;;;;5062057;28;20126;-57
2023/12/22 09:39:18;;;;;;;8.02;2.75;;;;;;;;;;5066573;28;20072;-60
2023/12/22 09:41:49;;;;;;;9.00;3.13;;;;;;;;;;5060812;28;20052;-58
2023/12/22 09:44:22;;;;;;;10.63;2.70;;;;;;;;;;5069008;28;20056;-54
2023/12/22 09:46:50;;;;;;;23.95;3.42;;;;;;;;;;5064565;28;20171;-54
2023/12/22 09:49:20;;;;;;;9.07;2.53;;;;;;;;;;5059934;28;20105;-59
2023/12/22 09:51:47;;;;;;;11.00;2.78;;;;;;;;;;5062669;28;20428;-56
2023/12/22 09:54:14;;;;;;;10.60;2.83;;;;;;;;;;5060634;28;20055;-56
2023/12/22 09:56:42;;;;;;;17.55;3.20;;;;;;;;;;5055028;28;20045;-56
2023/12/22 09:59:12;;;;;;;18.55;3.30;;;;;;;;;;5061988;28;20115;-55
2023/12/22 10:01:45;;;;;;;6.85;3.25;;;;;;;;;;5057065;28;20347;-56
2023/12/22 10:04:12;;;;;;;13.48;3.85;;;;;;;;;;5060938;28;20048;-54
2023/12/22 10:06:39;;;;;;;10.85;4.13;;;;;;;;;;5051178;28;20123;-60
2023/12/22 10:09:07;;;;;;;14.50;4.00;;;;;;;;;;5060311;28;20083;-56
2023/12/22 10:11:36;;;;;;;12.52;3.83;;;;;;;;;;5059556;28;20135;-56
2023/12/22 10:14:02;;;;;;;15.00;3.20;;;;;;;;;;5056244;28;20056;-54
2023/12/22 10:16:28;;;;;;;11.07;3.05;;;;;;;;;;5063136;28;20500;-53
2023/12/22 10:18:54;;;;;;;6.35;2.28;;;;;;;;;;5062104;28;20044;-57
2023/12/22 10:21:21;;;;;;;10.30;2.15;;;;;;;;;;5060570;28;20060;-54
2023/12/22 10:23:46;;;;;;;6.32;2.10;;;;;;;;;;5062267;28;20045;-57
2023/12/22 10:26:13;;;;;;;8.10;1.83;;;;;;;;;;5059409;28;20040;-58
2023/12/22 10:28:40;;;;;;;9.98;2.50;;;;;;;;;;5061723;28;20059;-58
2023/12/22 10:31:07;;;;;;;9.15;2.10;;;;;;;;;;5061611;28;20052;-54
2023/12/22 10:33:33;;;;;;;5.65;1.85;;;;;;;;;;5057738;28;20045;-55
2023/12/22 10:36:00;;;;;;;7.53;1.98;;;;;;;;;;5058772;28;20056;-53
2023/12/22 10:38:32;;;;;;;6.35;1.90;;;;;;;;;;5060797;28;20429;-62
2023/12/22 10:40:59;;;;;;;5.85;2.38;;;;;;;;;;5061935;28;20052;-61
2023/12/22 10:43:28;;;;;;;12.48;2.85;;;;;;;;;;5068821;28;20051;-56
2023/12/22 10:45:54;;;;;;;27.63;10.82;;;;;;;;;;5063544;28;20139;-56
2023/12/22 10:48:21;;;;;;;8.40;2.60;;;;;;;;;;5064192;28;20041;-60
2023/12/22 10:50:48;;;;;;;8.40;2.22;;;;;;;;;;5068239;28;20400;-60
2023/12/22 10:53:15;;;;;;;7.50;3.22;;;;;;;;;;5065454;28;20048;-59
2023/12/22 10:55:50;;;;;;;6.65;2.20;;;;;;;;;;5064959;28;20571;-60
2023/12/22 10:58:16;;;;;;;5.63;2.20;;;;;;;;;;5066498;28;20500;-61
2023/12/22 11:00:48;;;;;;;6.10;1.98;;;;;;;;;;5067857;28;20147;-60
2023/12/22 11:03:18;;;;;;;6.72;1.90;;;;;;;;;;5064868;28;20055;-58
2023/12/22 11:05:47;;;;;;;6.80;2.40;;;;;;;;;;5067632;28;20056;-58
2023/12/22 11:08:15;;;;;;;15.50;2.70;;;;;;;;;;5066504;28;20051;-61
2023/12/22 11:11:12;;;;;;;6.35;3.30;;;;;;;;;;5068706;28;20114;-60
2023/12/22 11:13:39;;;;;;;10.88;2.90;;;;;;;;;;5066010;28;20106;-59
2023/12/22 11:16:07;;;;;;;7.78;2.85;;;;;;;;;;5068163;28;20056;-60
2023/12/22 11:18:33;;;;;;;9.52;2.50;;;;;;;;;;5078398;28;20115;-58
2023/12/22 11:21:02;;;;;;;5.95;1.98;;;;;;;;;;5074640;28;20049;-61
2023/12/22 11:23:31;;;;;;;6.90;2.22;;;;;;;;;;5067853;28;20106;-58
2023/12/22 11:25:59;;;;;;;7.97;1.90;;;;;;;;;;5066567;28;20068;-60
2023/12/22 11:28:25;;;;;;;7.63;1.83;;;;;;;;;;4998930;28;1913039;-56
2023/12/22 11:30:54;;;;;;;6.35;2.10;;;;;;;;;;5099099;27;20059;-60
2023/12/22 11:33:20;;;;;;;4.03;1.77;;;;;;;;;;5082884;28;20114;-60
2023/12/22 11:35:47;;;;;;;3.22;1.50;;;;;;;;;;5065158;28;20045;-60
2023/12/22 11:38:13;;;;;;;6.78;1.80;;;;;;;;;;5061462;28;20118;-60
2023/12/22 11:40:40;;;;;;;3.58;1.30;;;;;;;;;;5067213;28;20633;-64
2023/12/22 11:43:07;;;;;;;6.50;1.50;;;;;;;;;;5066126;28;20492;-58
2023/12/22 11:45:34;;;;;;;9.02;1.63;;;;;;;;;;5066823;28;20109;-61
2023/12/22 11:48:10;;;;;;;7.47;3.00;;;;;;;;;;5066116;28;20052;-59
2023/12/22 11:50:37;;;;;;;5.45;1.70;;;;;;;;;;5060657;28;20146;-60
2023/12/22 11:53:23;;;;;;;5.50;1.55;;;;;;;;;;5053922;28;20083;-58
2023/12/22 11:56:07;;;;;;;14.35;4.75;;;;;;;;;;5056903;28;20045;-60
2023/12/22 11:58:52;;;;;;;7.78;1.70;;;;;;;;;;5058582;28;20044;-58
2023/12/22 12:01:25;;;;;;;6.90;2.42;;;;;;;;;;5055796;28;20117;-59
2023/12/22 12:03:59;;;;;;;4.88;1.90;;;;;;;;;;5056952;28;20087;-57
2023/12/22 12:06:36;;;;;;;6.88;2.83;;;;;;;;;;5050566;28;20041;-59
2023/12/22 12:09:09;;;;;;;5.00;1.63;;;;;;;;;;5051314;28;20040;-57
2023/12/22 12:11:58;;;;;;;6.57;1.60;;;;;;;;;;5054719;28;20041;-59
2023/12/22 12:14:40;;;;;;;7.30;1.40;;;;;;;;;;5047524;28;20714;-61
2023/12/22 12:17:08;;;;;;;2.95;1.10;;;;;;;;;;5055870;28;20060;-65
2023/12/22 12:19:37;;;;;;;4.28;1.42;;;;;;;;;;5062419;28;20142;-58
2023/12/22 12:22:03;;;;;;;12.60;2.47;;;;;;;;;;5059596;28;20047;-56
2023/12/22 12:24:29;;;;;;;8.55;2.78;;;;;;;;;;5072221;28;20111;-60
2023/12/22 12:26:55;;;;;;;3.38;1.83;;;;;;;;;;5058110;28;20052;-60
2023/12/22 12:29:22;;;;;;;3.65;1.40;;;;;;;;;;5062604;28;20583;-58
2023/12/22 12:31:48;;;;;;;6.90;1.67;;;;;;;;;;5059212;28;20072;-60
2023/12/22 12:34:17;;;;;;;4.05;1.60;;;;;;;;;;5063907;28;20072;-58
2023/12/22 12:36:44;;;;;;;4.35;1.50;;;;;;;;;;5057251;28;20888;-61
2023/12/22 12:39:15;;;;;;;4.75;1.30;;;;;;;;;;5059770;28;20571;-59
2023/12/22 12:41:52;;;;;;;6.60;1.40;;;;;;;;;;5053750;28;20044;-60
2023/12/22 12:44:21;;;;;;;3.42;1.42;;;;;;;;;;5058487;28;20044;-62
2023/12/22 12:46:49;;;;;;;2.55;1.08;;;;;;;;;;5060147;28;20341;-59
2023/12/22 12:49:15;;;;;;;5.63;1.25;;;;;;;;;;5064490;28;20047;-60
2023/12/22 12:51:46;;;;;;;4.55;1.00;;;;;;;;;;5060351;28;20087;-62
2023/12/22 12:54:14;;;;;;;3.97;1.20;;;;;;;;;;5060763;28;20402;-61
2023/12/22 12:56:47;;;;;;;10.57;3.90;;;;;;;;;;5059150;28;20053;-59
2023/12/22 12:59:20;;;;;;;5.53;2.38;;;;;;;;;;5065726;28;20067;-59
2023/12/22 13:01:47;;;;;;;5.88;1.50;;;;;;;;;;5062002;28;20327;-60
2023/12/22 13:04:14;;;;;;;5.50;1.75;;;;;;;;;;5059794;28;20545;-59
2023/12/22 13:06:46;;;;;;;3.60;1.30;;;;;;;;;;5063073;28;20048;-60
2023/12/22 13:09:13;;;;;;;4.75;1.00;;;;;;;;;;5059096;28;20074;-58
2023/12/22 13:11:46;;;;;;;4.32;1.30;;;;;;;;;;5062985;28;20134;-59
2023/12/22 13:14:26;;;;;;;6.93;1.27;;;;;;;;;;5059797;28;20051;-58
2023/12/22 13:16:57;;;;;;;3.58;1.08;;;;;;;;;;5062399;28;20057;-61
2023/12/22 13:19:27;;;;;;;10.05;1.60;;;;;;;;;;5058199;28;20056;-58
2023/12/22 13:21:54;;;;;;;6.28;3.13;;;;;;;;;;5057663;28;20053;-59
2023/12/22 13:24:21;;;;;;;2.42;1.30;;;;;;;;;;5063151;28;20527;-59
2023/12/22 13:26:47;;;;;;;12.13;2.00;;;;;;;;;;5063384;28;20822;-57
2023/12/22 13:29:14;;;;;;;5.88;1.60;;;;;;;;;;5057451;28;20049;-58
2023/12/22 13:31:42;;;;;;;4.47;1.45;;;;;;;;;;5061143;28;20053;-63
2023/12/22 13:34:17;;;;;;;7.00;1.95;;;;;;;;;;5062197;28;20107;-59
2023/12/22 13:36:44;;;;;;;4.82;1.45;;;;;;;;;;5052176;28;20050;-62
2023/12/22 13:39:12;;;;;;;3.00;1.15;;;;;;;;;;5054631;28;20044;-59
2023/12/22 13:41:45;;;;;;;5.00;1.20;;;;;;;;;;5060710;28;20044;-57
2023/12/22 13:44:11;;;;;;;2.97;1.20;;;;;;;;;;5089814;28;20090;-58
2023/12/22 13:46:40;;;;;;;3.78;1.52;;;;;;;;;;5056198;28;20052;-57
2023/12/22 13:49:11;;;;;;;3.85;1.20;;;;;;;;;;5059843;28;20148;-58
2023/12/22 13:51:40;;;;;;;4.40;1.00;;;;;;;;;;5055943;28;20128;-69
2023/12/22 13:54:06;;;;;;;4.80;1.30;;;;;;;;;;5058286;28;20048;-59
2023/12/22 13:56:35;;;;;;;7.65;1.40;;;;;;;;;;5054066;28;20059;-59
2023/12/22 13:59:01;;;;;;;3.35;1.00;;;;;;;;;;5063097;28;20055;-60
2023/12/22 14:01:27;;;;;;;2.40;1.05;;;;;;;;;;5060342;28;20451;-59
2023/12/22 14:03:53;;;;;;;5.00;1.17;;;;;;;;;;5051346;28;20606;-60
2023/12/22 14:06:19;;;;;;;2.95;0.95;;;;;;;;;;5058707;28;20272;-61
2023/12/22 14:08:45;;;;;;;4.57;1.23;;;;;;;;;;5057687;28;20052;-58
2023/12/22 14:11:11;;;;;;;3.30;1.33;;;;;;;;;;5055980;28;20043;-58
2023/12/22 14:13:40;;;;;;;3.78;1.10;;;;;;;;;;5060077;28;20048;-62
2023/12/22 14:16:07;;;;;;;4.22;0.98;;;;;;;;;;5057834;28;20057;-61
2023/12/22 14:18:33;;;;;;;5.47;1.25;;;;;;;;;;5059451;28;20052;-60
2023/12/22 14:21:01;;;;;;;6.65;1.95;;;;;;;;;;5058883;28;20052;-62
2023/12/22 14:23:29;;;;;;;5.40;1.52;;;;;;;;;;5066312;28;20301;-62
2023/12/22 14:25:56;;;;;;;0.90;0.60;;;;;;;;;;5057485;28;20041;-60
2023/12/22 14:28:23;;;;;;;5.63;0.70;;;;;;;;;;5059430;28;20399;-61
2023/12/22 14:30:49;;;;;;;2.25;0.90;;;;;;;;;;5063136;28;20397;-61
2023/12/22 14:33:15;;;;;;;2.92;1.58;;;;;;;;;;5092500;28;20051;-62
2023/12/22 14:35:42;;;;;;;4.18;2.13;;;;;;;;;;5058916;28;20109;-61
2023/12/22 14:38:07;;;;;;;2.28;0.80;;;;;;;;;;5062014;28;20056;-62
2023/12/22 14:40:36;;;;;;;1.20;0.80;;;;;;;;;;5063868;28;20059;-58
2023/12/22 14:43:02;;;;;;;2.58;1.02;;;;;;;;;;5055101;28;20043;-61
2023/12/22 14:45:30;;;;;;;1.88;0.70;;;;;;;;;;5056952;28;20168;-61
2023/12/22 14:47:57;;;;;;;1.65;0.80;;;;;;;;;;5054786;28;20139;-58
2023/12/22 14:50:23;;;;;;;2.15;0.88;;;;;;;;;;5061868;28;20060;-55
2023/12/22 14:52:49;;;;;;;3.25;1.00;;;;;;;;;;5059086;28;20054;-57
2023/12/22 14:55:17;;;;;;;23.48;14.32;;;;;;;;;;5060929;28;20037;-56
2023/12/22 14:57:48;;;;;;;7.10;2.72;;;;;;;;;;5057039;28;20064;-60
2023/12/22 15:00:15;;;;;;;3.03;0.85;;;;;;;;;;5053840;28;20063;-59
2023/12/22 15:02:42;;;;;;;3.50;1.15;;;;;;;;;;5060819;28;20048;-61
2023/12/22 15:05:09;;;;;;;1.80;0.75;;;;;;;;;;5062897;28;20056;-56
2023/12/22 15:07:35;;;;;;;5.35;1.50;;;;;;;;;;5059407;28;20040;-58